Time;durP1;ratioP1;P1;durP2;ratioP2;P2;SDS_P1;SDS_P2;PMS_P1;PMS_P2;Temp;Humidity;BMP_temperature;BMP_pressure;BME280_temperature;BME280_humidity;BME280_pressure;Samples;Min_cycle;Max_cycle;Signal;HPM_P1;HPM_P2
2022/07/22 00:00:51;;;;;;;12.18;4.35;;;;;;;15.44;100.00;102075.03;4980200;28;20066;-65
2022/07/22 00:03:17;;;;;;;11.35;4.53;;;;;;;15.43;100.00;102073.28;4989896;28;20039;-65
2022/07/22 00:05:42;;;;;;;10.15;3.70;;;;;;;15.40;100.00;102078.84;5005100;28;20045;-66
2022/07/22 00:08:08;;;;;;;13.23;3.85;;;;;;;15.45;100.00;102082.13;4989900;28;20218;-66
2022/07/22 00:10:33;;;;;;;9.20;3.95;;;;;;;15.43;100.00;102081.34;4989906;28;20039;-65
2022/07/22 00:12:59;;;;;;;11.35;3.85;;;;;;;15.41;100.00;102084.16;4990055;28;20041;-64
2022/07/22 00:15:24;;;;;;;15.75;4.43;;;;;;;15.46;100.00;102086.53;4989830;28;20211;-65
2022/07/22 00:17:50;;;;;;;11.60;3.17;;;;;;;15.42;100.00;102083.19;4989900;28;20045;-65
2022/07/22 00:20:15;;;;;;;10.30;4.05;;;;;;;15.48;100.00;102084.63;4989820;28;20053;-65
2022/07/22 00:22:41;;;;;;;14.95;4.57;;;;;;;15.46;100.00;102075.78;4989980;28;20035;-65
2022/07/22 00:25:07;;;;;;;11.90;3.83;;;;;;;15.41;100.00;102072.50;4989941;28;20019;-65
2022/07/22 00:27:32;;;;;;;11.10;3.15;;;;;;;15.47;100.00;102082.91;4989895;28;20027;-65
2022/07/22 00:29:58;;;;;;;6.20;3.50;;;;;;;15.50;100.00;102080.84;5005083;28;20196;-65
2022/07/22 00:32:23;;;;;;;12.10;4.28;;;;;;;15.59;100.00;102078.53;5005215;28;20045;-65
2022/07/22 00:34:49;;;;;;;18.23;3.95;;;;;;;15.58;100.00;102084.88;4989750;28;20042;-65
2022/07/22 00:37:14;;;;;;;8.93;3.55;;;;;;;15.54;100.00;102077.00;4990017;28;20026;-65
2022/07/22 00:39:39;;;;;;;9.80;3.70;;;;;;;15.55;100.00;102084.09;4989963;28;20046;-65
2022/07/22 00:42:05;;;;;;;15.10;4.15;;;;;;;15.58;100.00;102076.81;4989826;28;20034;-65
2022/07/22 00:44:30;;;;;;;14.10;5.03;;;;;;;15.55;100.00;102078.72;4989847;28;20039;-65
2022/07/22 00:46:56;;;;;;;16.90;4.07;;;;;;;15.56;100.00;102074.22;4989769;28;20039;-65
2022/07/22 00:49:21;;;;;;;8.32;3.30;;;;;;;15.52;100.00;102078.94;4989687;28;20035;-65
2022/07/22 00:51:47;;;;;;;13.13;3.35;;;;;;;15.49;100.00;102070.22;4989416;28;20035;-65
2022/07/22 00:54:13;;;;;;;11.93;3.60;;;;;;;15.52;100.00;102072.72;4989620;28;20130;-66
2022/07/22 00:56:39;;;;;;;10.88;3.83;;;;;;;15.47;100.00;102073.00;5007762;28;20039;-65
2022/07/22 00:59:08;;;;;;;12.45;4.18;;;;;;;15.53;100.00;102075.28;4975152;28;20089;-65
2022/07/22 01:01:33;;;;;;;8.63;3.35;;;;;;;15.58;100.00;102075.00;5003878;28;20037;-65
2022/07/22 01:04:00;;;;;;;18.63;4.40;;;;;;;15.54;100.00;102076.16;5008208;28;20023;-65
2022/07/22 01:06:26;;;;;;;10.43;3.63;;;;;;;15.45;100.00;102077.59;5008365;28;20182;-65
2022/07/22 01:08:51;;;;;;;11.57;3.70;;;;;;;15.52;100.00;102068.19;5008121;28;20037;-65
2022/07/22 01:11:19;;;;;;;6.93;3.35;;;;;;;15.46;100.00;102057.84;4992709;28;20050;-65
2022/07/22 01:13:46;;;;;;;11.93;3.60;;;;;;;15.44;100.00;102062.44;4992586;28;20035;-64
2022/07/22 01:16:13;;;;;;;8.25;3.40;;;;;;;15.46;100.00;102059.63;5007932;28;20026;-65
2022/07/22 01:18:39;;;;;;;8.23;2.63;;;;;;;15.51;100.00;102063.78;5007832;28;20038;-65
2022/07/22 01:21:06;;;;;;;19.77;3.30;;;;;;;15.55;100.00;102057.22;4992524;28;20035;-65
2022/07/22 01:23:32;;;;;;;13.90;3.63;;;;;;;15.61;100.00;102064.03;5007686;28;20041;-65
2022/07/22 01:25:58;;;;;;;7.97;2.70;;;;;;;15.53;100.00;102063.69;4995170;28;20024;-65
2022/07/22 01:28:24;;;;;;;11.70;2.88;;;;;;;15.61;100.00;102064.03;4972006;28;20031;-65
2022/07/22 01:30:50;;;;;;;9.80;3.88;;;;;;;15.66;100.00;102069.13;4972011;28;20041;-65
2022/07/22 01:33:18;;;;;;;9.90;3.35;;;;;;;15.66;100.00;102069.13;4973397;28;20026;-65
2022/07/22 01:35:44;;;;;;;9.32;3.55;;;;;;;15.75;100.00;102072.09;4971411;28;20047;-65
2022/07/22 01:38:11;;;;;;;12.18;3.42;;;;;;;15.63;100.00;102070.22;4972461;28;20095;-64
2022/07/22 01:40:36;;;;;;;6.18;3.30;;;;;;;15.59;100.00;102074.03;4971348;28;20058;-64
2022/07/22 01:43:02;;;;;;;11.82;3.28;;;;;;;15.66;100.00;102066.44;4971663;28;20027;-64
2022/07/22 01:45:28;;;;;;;8.95;3.03;;;;;;;15.57;100.00;102073.28;4971517;28;20241;-64
2022/07/22 01:47:53;;;;;;;11.85;3.22;;;;;;;15.64;100.00;102074.63;4971311;28;20027;-64
2022/07/22 01:50:19;;;;;;;7.88;4.00;;;;;;;15.65;100.00;102073.66;4971614;28;20093;-64
2022/07/22 01:52:44;;;;;;;8.55;3.50;;;;;;;15.60;100.00;102075.75;4971633;28;20111;-64
2022/07/22 01:55:11;;;;;;;8.85;3.20;;;;;;;15.76;100.00;102071.16;4972014;28;20035;-64
2022/07/22 01:57:36;;;;;;;8.30;3.22;;;;;;;15.65;100.00;102062.91;4972200;28;20035;-64
2022/07/22 02:00:12;;;;;;;13.43;3.70;;;;;;;15.75;100.00;102064.03;4987280;28;20039;-64
2022/07/22 02:02:41;;;;;;;7.85;3.15;;;;;;;15.74;100.00;102058.75;4972409;28;20036;-64
2022/07/22 02:05:09;;;;;;;8.82;3.92;;;;;;;15.72;100.00;102058.00;4971380;28;20043;-64
2022/07/22 02:07:34;;;;;;;9.05;4.00;;;;;;;15.73;100.00;102067.78;4971093;28;20027;-64
2022/07/22 02:10:00;;;;;;;8.98;3.30;;;;;;;15.66;100.00;102056.59;4987205;28;20027;-64
2022/07/22 02:12:26;;;;;;;8.35;3.35;;;;;;;15.64;100.00;102055.81;4986944;28;20067;-64
2022/07/22 02:14:52;;;;;;;7.25;3.88;;;;;;;15.67;100.00;102055.63;4970902;28;20035;-64
2022/07/22 02:17:17;;;;;;;11.88;3.80;;;;;;;15.74;100.00;102050.69;4970764;28;20038;-63
2022/07/22 02:19:43;;;;;;;7.32;3.63;;;;;;;15.80;100.00;102050.28;4970645;28;20082;-64
2022/07/22 02:22:11;;;;;;;7.88;4.38;;;;;;;15.63;100.00;102056.78;4970804;28;20032;-64
2022/07/22 02:24:36;;;;;;;11.63;3.80;;;;;;;15.75;100.00;102055.94;4972958;28;20062;-64
2022/07/22 02:27:03;;;;;;;8.77;4.13;;;;;;;15.63;100.00;102055.88;5006209;28;20037;-64
2022/07/22 02:29:29;;;;;;;10.68;4.85;;;;;;;15.74;100.00;102062.31;4989840;28;20046;-64
2022/07/22 02:31:55;;;;;;;11.27;4.85;;;;;;;15.71;100.00;102058.94;5006158;28;20097;-64
2022/07/22 02:34:21;;;;;;;8.35;4.43;;;;;;;15.77;100.00;102053.19;4990893;28;20026;-64
2022/07/22 02:36:46;;;;;;;11.70;4.72;;;;;;;15.83;100.00;102046.53;5005879;28;20042;-64
2022/07/22 02:39:12;;;;;;;10.38;3.65;;;;;;;15.74;100.00;102048.84;4973246;28;20031;-64
2022/07/22 02:41:39;;;;;;;10.63;4.75;;;;;;;15.72;100.00;102049.94;5005815;28;20094;-64
2022/07/22 02:44:05;;;;;;;17.33;4.90;;;;;;;15.73;100.00;102047.13;5005796;28;20042;-64
2022/07/22 02:46:30;;;;;;;9.63;4.63;;;;;;;15.85;100.00;102052.66;4990820;28;20038;-64
2022/07/22 02:49:05;;;;;;;16.50;5.43;;;;;;;15.84;100.00;102045.56;5005757;28;20054;-64
2022/07/22 02:51:30;;;;;;;7.95;5.00;;;;;;;15.84;100.00;102040.19;4989707;28;20030;-64
2022/07/22 02:53:56;;;;;;;11.70;5.22;;;;;;;15.85;100.00;102048.13;5005533;28;20046;-64
2022/07/22 02:56:22;;;;;;;10.38;4.32;;;;;;;15.88;100.00;102044.41;5005446;28;20050;-65
2022/07/22 02:58:51;;;;;;;10.20;4.70;;;;;;;15.97;100.00;102051.88;4973673;28;20023;-64
2022/07/22 03:01:18;;;;;;;13.52;5.43;;;;;;;15.95;100.00;102041.19;4969722;28;20043;-64
2022/07/22 03:03:50;;;;;;;12.52;5.30;;;;;;;15.90;100.00;102045.16;4970702;28;20023;-64
2022/07/22 03:06:16;;;;;;;17.65;6.03;;;;;;;15.93;100.00;102039.56;4969517;28;20045;-64
2022/07/22 03:08:53;;;;;;;14.73;5.75;;;;;;;15.98;100.00;102045.50;4985751;28;20050;-64
2022/07/22 03:11:18;;;;;;;17.02;5.38;;;;;;;15.91;100.00;102049.56;4985560;28;20039;-64
2022/07/22 03:13:43;;;;;;;10.93;4.93;;;;;;;15.93;100.00;102053.03;4969773;28;20031;-66
2022/07/22 03:16:09;;;;;;;14.32;5.13;;;;;;;15.96;100.00;102060.88;4985862;28;20015;-64
2022/07/22 03:18:36;;;;;;;12.27;5.72;;;;;;;15.92;100.00;102064.75;4969655;28;20064;-64
2022/07/22 03:21:02;;;;;;;16.17;5.45;;;;;;;15.82;100.00;102063.66;4969629;28;20043;-64
2022/07/22 03:23:27;;;;;;;10.93;5.45;;;;;;;15.86;100.00;102062.44;4985902;28;20082;-64
2022/07/22 03:25:52;;;;;;;14.00;5.28;;;;;;;15.89;100.00;102055.06;4985617;28;20035;-64
2022/07/22 03:28:18;;;;;;;15.43;5.90;;;;;;;15.95;100.00;102049.25;4970456;28;20035;-63
2022/07/22 03:30:43;;;;;;;16.13;5.53;;;;;;;15.93;100.00;102053.88;4970466;28;20027;-63
2022/07/22 03:33:09;;;;;;;15.32;5.50;;;;;;;15.99;100.00;102055.31;4969532;28;20031;-64
2022/07/22 03:35:39;;;;;;;14.43;6.05;;;;;;;16.01;100.00;102043.50;4985627;28;20027;-64
2022/07/22 03:38:05;;;;;;;15.82;6.57;;;;;;;15.97;100.00;102055.41;4969313;28;20034;-63
2022/07/22 03:40:30;;;;;;;22.88;6.35;;;;;;;15.93;100.00;102051.19;4985458;28;20027;-64
2022/07/22 03:42:57;;;;;;;16.15;5.72;;;;;;;15.96;100.00;102050.97;4969219;28;20055;-64
2022/07/22 03:45:23;;;;;;;17.67;6.85;;;;;;;15.96;100.00;102055.50;4969356;28;20035;-69
2022/07/22 03:47:48;;;;;;;18.85;5.30;;;;;;;16.03;100.00;102059.53;4969474;28;20054;-64
2022/07/22 03:50:15;;;;;;;11.02;4.95;;;;;;;16.00;100.00;102057.03;4985204;28;20041;-65
2022/07/22 03:52:41;;;;;;;13.45;4.97;;;;;;;16.04;100.00;102058.56;4985314;28;20047;-64
2022/07/22 03:55:09;;;;;;;12.98;5.45;;;;;;;15.99;100.00;102060.69;4969738;28;20028;-64
2022/07/22 03:57:35;;;;;;;12.43;4.90;;;;;;;16.02;100.00;102060.50;4985469;28;20023;-64
2022/07/22 04:00:10;;;;;;;19.13;6.68;;;;;;;16.08;100.00;102060.06;4973379;28;20106;-65
2022/07/22 04:02:43;;;;;;;19.30;5.70;;;;;;;15.99;100.00;102058.84;4988798;28;20046;-65
2022/07/22 04:05:15;;;;;;;13.50;5.30;;;;;;;16.11;100.00;102054.47;5005038;28;20033;-65
2022/07/22 04:07:40;;;;;;;19.15;5.75;;;;;;;16.10;100.00;102057.28;4989799;28;20050;-65
2022/07/22 04:10:06;;;;;;;19.60;5.38;;;;;;;16.12;100.00;102045.47;4988593;28;20039;-65
2022/07/22 04:12:37;;;;;;;10.65;5.00;;;;;;;16.17;100.00;102047.84;4973101;28;20027;-64
2022/07/22 04:15:17;;;;;;;14.02;4.32;;;;;;;16.15;100.00;102045.22;4988831;28;20320;-65
2022/07/22 04:17:43;;;;;;;15.20;4.82;;;;;;;16.23;100.00;102045.59;5004862;28;20046;-64
2022/07/22 04:20:09;;;;;;;12.32;5.43;;;;;;;16.29;100.00;102045.16;5004825;28;20069;-65
2022/07/22 04:22:55;;;;;;;10.57;4.68;;;;;;;16.21;100.00;102050.19;4989313;28;20043;-64
2022/07/22 04:25:20;;;;;;;9.55;5.50;;;;;;;16.23;100.00;102052.78;5004872;28;20385;-64
2022/07/22 04:27:46;;;;;;;14.88;5.13;;;;;;;16.10;100.00;102049.19;4989521;28;20051;-64
2022/07/22 04:30:11;;;;;;;10.63;4.53;;;;;;;16.06;100.00;102051.22;5005312;28;20034;-65
2022/07/22 04:32:38;;;;;;;11.25;3.75;;;;;;;16.03;100.00;102044.22;4998691;28;20036;-65
2022/07/22 04:35:04;;;;;;;17.25;4.85;;;;;;;16.25;100.00;102045.47;4972733;28;20094;-64
2022/07/22 04:37:30;;;;;;;9.48;3.78;;;;;;;16.18;100.00;102044.19;4972742;28;20071;-64
2022/07/22 04:39:57;;;;;;;14.13;3.25;;;;;;;16.17;100.00;102046.00;4972533;28;20035;-64
2022/07/22 04:42:23;;;;;;;19.00;3.88;;;;;;;16.23;100.00;102036.66;4972549;28;20058;-64
2022/07/22 04:44:49;;;;;;;12.18;3.47;;;;;;;16.38;100.00;102042.81;4972221;28;20035;-68
2022/07/22 04:47:15;;;;;;;8.98;3.50;;;;;;;16.33;100.00;102037.75;4972356;28;20058;-65
2022/07/22 04:49:41;;;;;;;11.70;3.58;;;;;;;16.33;100.00;102042.28;4972137;28;20079;-66
2022/07/22 04:52:08;;;;;;;11.57;3.45;;;;;;;16.46;100.00;102038.59;4972219;28;20350;-64
2022/07/22 04:54:40;;;;;;;;;;;;;;;16.27;100.00;102041.72;4972922;28;20028;-65
2022/07/22 04:57:06;;;;;;;11.18;3.15;;;;;;;16.33;100.00;102037.75;4972203;28;19933;-66
2022/07/22 04:59:32;;;;;;;8.43;2.83;;;;;;;16.29;100.00;102037.09;4988214;28;20031;-65
2022/07/22 05:01:57;;;;;;;7.32;3.15;;;;;;;16.39;100.00;102041.84;5006789;28;20038;-64
2022/07/22 05:04:23;;;;;;;10.93;3.80;;;;;;;16.41;100.00;102035.38;4991371;28;20026;-66
2022/07/22 05:06:50;;;;;;;16.70;3.92;;;;;;;16.51;100.00;102041.84;4991091;28;20031;-65
2022/07/22 05:09:16;;;;;;;8.32;2.78;;;;;;;16.58;100.00;102037.78;5005489;28;20045;-65
2022/07/22 05:11:41;;;;;;;4.53;2.88;;;;;;;16.68;100.00;102042.53;5006629;28;20036;-68
2022/07/22 05:14:07;;;;;;;6.40;2.88;;;;;;;16.77;100.00;102040.09;5006549;28;20130;-65
2022/07/22 05:16:36;;;;;;;10.05;3.25;;;;;;;16.79;100.00;102035.44;4985359;28;20034;-66
2022/07/22 05:19:04;;;;;;;6.45;3.30;;;;;;;16.87;100.00;102039.41;4990075;28;20215;-65
2022/07/22 05:21:32;;;;;;;9.00;3.05;;;;;;;16.89;100.00;102037.47;5006322;28;20015;-64
2022/07/22 05:23:58;;;;;;;10.77;3.90;;;;;;;16.89;100.00;102038.34;5006658;28;20139;-66
2022/07/22 05:26:24;;;;;;;7.43;3.10;;;;;;;16.66;100.00;102033.66;4991030;28;20057;-65
2022/07/22 05:28:50;;;;;;;9.18;3.72;;;;;;;16.71;100.00;102036.91;4971176;28;20035;-64
2022/07/22 05:31:16;;;;;;;7.35;2.95;;;;;;;16.78;100.00;102039.09;4971317;28;20047;-66
2022/07/22 05:33:41;;;;;;;12.07;3.08;;;;;;;16.57;100.00;102043.28;4971207;28;20027;-64
2022/07/22 05:36:27;;;;;;;11.13;2.85;;;;;;;16.78;100.00;102044.50;4968435;28;20106;-64
2022/07/22 05:38:54;;;;;;;8.40;2.92;;;;;;;16.81;100.00;102038.00;4970966;28;20023;-65
2022/07/22 05:41:20;;;;;;;6.57;3.22;;;;;;;16.80;100.00;102047.06;4972142;28;20049;-65
2022/07/22 05:43:45;;;;;;;7.78;3.08;;;;;;;16.83;100.00;102042.34;4972157;28;20039;-64
2022/07/22 05:46:11;;;;;;;7.85;2.70;;;;;;;16.72;100.00;102046.75;4971124;28;20023;-65
2022/07/22 05:48:37;;;;;;;7.13;2.80;;;;;;;16.96;100.00;102047.69;4970951;28;20027;-65
2022/07/22 05:51:02;;;;;;;15.15;2.80;;;;;;;17.07;100.00;102055.06;4970900;28;20032;-64
2022/07/22 05:53:30;;;;;;;10.23;2.78;;;;;;;17.04;100.00;102052.56;4970536;28;20354;-65
2022/07/22 05:55:55;;;;;;;8.00;2.70;;;;;;;17.22;100.00;102053.94;4970654;28;20039;-65
2022/07/22 05:58:22;;;;;;;6.57;3.13;;;;;;;17.14;100.00;102058.16;4970504;28;20031;-63
2022/07/22 06:00:47;;;;;;;5.93;2.83;;;;;;;17.13;100.00;102046.53;4979827;28;20246;-63
2022/07/22 06:03:14;;;;;;;8.40;2.95;;;;;;;17.31;100.00;102050.56;5005941;28;20131;-64
2022/07/22 06:05:39;;;;;;;6.30;2.95;;;;;;;17.13;100.00;102056.44;5006094;28;20027;-63
2022/07/22 06:08:08;;;;;;;15.02;3.03;;;;;;;17.11;100.00;102052.97;4990667;28;20098;-64
2022/07/22 06:10:52;;;;;;;15.10;3.72;;;;;;;17.32;100.00;102054.16;5006109;28;20026;-64
2022/07/22 06:13:19;;;;;;;9.48;2.28;;;;;;;17.53;100.00;102054.41;4973768;28;20073;-63
2022/07/22 06:15:44;;;;;;;8.15;2.30;;;;;;;17.59;100.00;102049.41;5005932;28;20042;-63
2022/07/22 06:18:11;;;;;;;6.40;2.30;;;;;;;17.49;100.00;102053.75;4973173;28;20031;-63
2022/07/22 06:20:37;;;;;;;7.18;2.53;;;;;;;17.63;100.00;102051.91;5005393;28;20113;-63
2022/07/22 06:23:02;;;;;;;9.15;2.47;;;;;;;17.39;100.00;102057.25;5005461;28;20054;-65
2022/07/22 06:25:29;;;;;;;5.40;2.60;;;;;;;17.60;100.00;102055.66;4996484;28;20107;-63
2022/07/22 06:27:54;;;;;;;5.90;2.45;;;;;;;17.63;100.00;102052.75;4969631;28;20051;-66
2022/07/22 06:30:20;;;;;;;5.15;2.70;;;;;;;17.73;100.00;102056.53;4970800;28;20035;-64
2022/07/22 06:32:51;;;;;;;6.63;2.80;;;;;;;17.45;100.00;102060.34;4970041;28;20029;-65
2022/07/22 06:35:17;;;;;;;5.20;2.08;;;;;;;17.78;100.00;102064.28;4970178;28;20035;-64
2022/07/22 06:37:43;;;;;;;7.93;2.30;;;;;;;17.66;100.00;102057.06;4969771;28;20268;-65
2022/07/22 06:40:10;;;;;;;7.70;2.55;;;;;;;17.86;100.00;102051.06;4969895;28;20023;-64
2022/07/22 06:42:59;;;;;;;8.40;2.83;;;;;;;18.27;100.00;102047.97;4962767;28;20043;-64
2022/07/22 06:45:31;;;;;;;11.07;2.88;;;;;;;18.31;100.00;102046.72;4968233;28;20023;-66
2022/07/22 06:48:10;;;;;;;8.00;2.78;;;;;;;18.48;100.00;102056.25;4968370;28;20039;-65
2022/07/22 06:50:36;;;;;;;9.95;2.53;;;;;;;18.57;100.00;102049.25;4968524;28;20315;-64
2022/07/22 06:53:06;;;;;;;12.00;2.63;;;;;;;18.60;100.00;102051.72;4965272;28;20039;-64
2022/07/22 06:55:32;;;;;;;5.70;1.98;;;;;;;18.48;100.00;102049.97;4969480;28;20031;-66
2022/07/22 06:58:08;;;;;;;10.30;2.58;;;;;;;18.65;100.00;102054.91;4969511;28;20083;-64
2022/07/22 07:00:33;;;;;;;9.15;2.45;;;;;;;18.88;95.93;102043.19;4977127;28;20050;-67
2022/07/22 07:03:31;;;;;;;7.10;1.80;;;;;;;18.98;99.17;102046.03;5007241;28;20042;-64
2022/07/22 07:05:59;;;;;;;9.00;2.20;;;;;;;18.60;96.46;102047.16;4990495;28;20034;-65
2022/07/22 07:08:30;;;;;;;14.23;2.63;;;;;;;18.67;97.42;102050.25;4990531;28;20048;-64
2022/07/22 07:10:55;;;;;;;8.80;2.50;;;;;;;18.84;98.47;102035.44;4974340;28;20030;-64
2022/07/22 07:13:21;;;;;;;9.32;2.53;;;;;;;19.38;91.90;102040.97;4990517;28;20034;-64
2022/07/22 07:15:47;;;;;;;7.63;2.55;;;;;;;19.46;89.96;102045.75;4990461;28;20034;-64
2022/07/22 07:18:13;;;;;;;8.35;2.60;;;;;;;19.59;86.19;102038.38;4990099;28;20030;-66
2022/07/22 07:20:39;;;;;;;9.40;2.30;;;;;;;19.63;89.51;102036.28;4990438;28;20039;-65
2022/07/22 07:23:06;;;;;;;10.25;2.55;;;;;;;19.96;84.25;102032.59;4989715;28;20042;-65
2022/07/22 07:25:35;;;;;;;10.38;3.45;;;;;;;19.77;86.38;102040.53;4976801;28;20040;-66
2022/07/22 07:28:01;;;;;;;9.13;2.60;;;;;;;19.77;91.60;102030.56;4970163;28;20114;-65
2022/07/22 07:30:47;;;;;;;7.00;2.10;;;;;;;19.81;87.35;102040.16;4967530;28;20059;-66
2022/07/22 07:33:13;;;;;;;5.65;2.85;;;;;;;20.15;80.75;102029.19;4966762;28;20038;-65
2022/07/22 07:35:38;;;;;;;8.05;2.75;;;;;;;20.11;90.30;102043.97;4966831;28;20348;-67
2022/07/22 07:38:04;;;;;;;8.73;2.40;;;;;;;20.07;89.95;102039.81;4969316;28;20043;-66
2022/07/22 07:40:31;;;;;;;7.13;2.80;;;;;;;20.15;83.79;102026.50;4969535;28;20119;-66
2022/07/22 07:42:56;;;;;;;11.18;3.28;;;;;;;19.93;86.94;102035.59;4970673;28;20043;-66
2022/07/22 07:45:22;;;;;;;8.57;2.42;;;;;;;20.06;81.24;102032.69;4969836;28;20086;-66
2022/07/22 07:47:47;;;;;;;6.03;2.53;;;;;;;20.31;87.25;102024.19;4968625;28;20039;-66
2022/07/22 07:50:14;;;;;;;4.60;2.35;;;;;;;19.62;82.82;102038.09;4968898;28;20038;-65
2022/07/22 07:52:47;;;;;;;7.95;1.95;;;;;;;20.19;79.97;102033.38;4969325;28;20171;-66
2022/07/22 07:55:14;;;;;;;2.67;1.55;;;;;;;19.70;83.77;102042.03;4968623;28;20118;-65
2022/07/22 07:57:41;;;;;;;3.40;1.80;;;;;;;19.88;83.76;102043.19;4968974;28;20020;-64
2022/07/22 08:00:11;;;;;;;12.55;2.55;;;;;;;19.97;86.70;102041.56;4968173;28;20193;-65
2022/07/22 08:02:39;;;;;;;7.07;2.38;;;;;;;20.11;78.42;102044.84;4969008;28;20102;-65
2022/07/22 08:05:06;;;;;;;6.80;2.17;;;;;;;19.98;81.82;102052.31;4968881;28;20028;-65
2022/07/22 08:07:32;;;;;;;5.95;1.77;;;;;;;20.32;84.78;102046.72;4973547;28;20119;-65
2022/07/22 08:09:58;;;;;;;3.83;1.95;;;;;;;20.23;85.66;102040.25;4972159;28;20029;-65
2022/07/22 08:12:42;;;;;;;5.00;2.28;;;;;;;19.90;81.30;102046.66;4973784;28;20071;-65
2022/07/22 08:15:26;;;;;;;6.70;1.88;;;;;;;20.29;78.88;102039.72;4972262;28;20054;-65
2022/07/22 08:17:53;;;;;;;5.07;2.38;;;;;;;20.15;81.01;102037.31;4971932;28;20376;-65
2022/07/22 08:20:18;;;;;;;5.03;2.25;;;;;;;20.33;78.74;102041.19;4972111;28;20054;-65
2022/07/22 08:22:44;;;;;;;7.25;2.00;;;;;;;20.11;80.36;102041.28;4973233;28;20027;-67
2022/07/22 08:25:10;;;;;;;6.00;1.75;;;;;;;19.82;80.50;102050.00;4971006;28;20038;-64
2022/07/22 08:27:36;;;;;;;7.18;1.95;;;;;;;20.01;79.45;102049.31;4971895;28;20039;-65
2022/07/22 08:30:05;;;;;;;5.93;1.85;;;;;;;19.59;82.82;102051.03;4967841;28;20035;-65
2022/07/22 08:32:33;;;;;;;7.80;2.20;;;;;;;19.44;81.42;102050.44;4971682;28;20031;-64
2022/07/22 08:35:01;;;;;;;3.58;2.10;;;;;;;19.66;83.62;102054.97;4972110;28;20085;-64
2022/07/22 08:37:27;;;;;;;11.65;2.45;;;;;;;19.79;83.08;102052.97;4971533;28;20067;-64
2022/07/22 08:39:53;;;;;;;6.25;2.25;;;;;;;19.82;87.14;102052.69;4972318;28;20043;-63
2022/07/22 08:42:22;;;;;;;6.57;2.35;;;;;;;19.72;80.29;102049.03;4971748;28;20035;-63
2022/07/22 08:44:48;;;;;;;3.72;1.80;;;;;;;19.97;82.14;102045.13;4972874;28;20035;-65
2022/07/22 08:47:15;;;;;;;6.05;1.85;;;;;;;19.88;82.00;102044.09;4972408;28;20096;-64
2022/07/22 08:50:03;;;;;;;6.97;1.90;;;;;;;20.08;82.08;102041.53;4972842;28;20031;-64
2022/07/22 08:52:38;;;;;;;13.82;2.33;;;;;;;20.56;79.45;102035.66;4970687;28;20030;-66
2022/07/22 08:55:05;;;;;;;4.88;1.80;;;;;;;20.85;77.65;102038.53;4971458;28;20027;-64
2022/07/22 08:57:31;;;;;;;8.43;2.72;;;;;;;20.98;76.47;102025.59;4969854;28;20030;-64
2022/07/22 08:59:58;;;;;;;8.65;2.40;;;;;;;20.77;80.42;102028.34;4978089;28;20039;-64
2022/07/22 09:02:25;;;;;;;4.28;2.35;;;;;;;21.13;78.38;102017.94;4952816;28;20036;-64
2022/07/22 09:04:58;;;;;;;11.15;2.40;;;;;;;21.55;72.99;102025.97;4959373;28;20022;-64
2022/07/22 09:07:30;;;;;;;5.90;2.42;;;;;;;21.50;74.03;102028.25;4979187;28;20271;-64
2022/07/22 09:10:01;;;;;;;5.18;1.90;;;;;;;21.20;75.88;102033.56;4971404;28;20029;-64
2022/07/22 09:13:04;;;;;;;4.78;2.13;;;;;;;21.56;73.85;102027.69;4973919;28;20074;-64
2022/07/22 09:15:51;;;;;;;5.10;1.67;;;;;;;22.56;68.80;102033.72;5006456;28;20077;-64
2022/07/22 09:18:54;;;;;;;3.80;1.70;;;;;;;22.17;69.09;102036.47;4991943;28;20062;-64
2022/07/22 09:21:42;;;;;;;8.15;2.50;;;;;;;21.97;68.11;102032.00;4992092;28;20066;-65
2022/07/22 09:24:31;;;;;;;7.30;2.20;;;;;;;21.92;67.54;102029.72;4990983;28;20035;-65
2022/07/22 09:27:24;;;;;;;5.70;1.70;;;;;;;21.80;67.00;102027.31;4951573;28;20059;-65
2022/07/22 09:30:16;;;;;;;6.10;1.80;;;;;;;23.08;65.52;102025.13;4951560;28;20076;-66
2022/07/22 09:32:51;;;;;;;5.67;1.67;;;;;;;22.82;71.05;102022.19;4937215;29;20063;-64
2022/07/22 09:35:44;;;;;;;10.25;2.20;;;;;;;22.02;69.47;102021.56;4952763;28;20067;-65
2022/07/22 09:38:12;;;;;;;4.85;1.75;;;;;;;21.03;70.67;102017.06;4952361;28;20028;-64
2022/07/22 09:40:43;;;;;;;6.00;1.63;;;;;;;22.37;65.92;102004.69;4951550;28;20043;-65
2022/07/22 09:43:12;;;;;;;6.00;2.00;;;;;;;21.79;65.08;102017.41;4950956;28;20032;-64
2022/07/22 09:45:46;;;;;;;7.88;2.45;;;;;;;22.71;62.88;102012.34;4951222;28;20043;-63
2022/07/22 09:48:12;;;;;;;10.48;4.22;;;;;;;22.49;67.13;102021.69;4952218;28;20038;-63
2022/07/22 09:50:51;;;;;;;5.93;1.70;;;;;;;22.93;60.50;102022.88;4951181;28;20027;-63
2022/07/22 09:53:41;;;;;;;5.13;1.65;;;;;;;22.96;60.34;102011.72;4931225;28;20170;-63
2022/07/22 09:56:12;;;;;;;5.03;2.35;;;;;;;22.25;66.22;102015.91;4915659;28;20104;-63
2022/07/22 09:58:38;;;;;;;9.15;2.35;;;;;;;21.38;65.87;102011.19;4915715;28;20385;-64
2022/07/22 10:01:12;;;;;;;5.93;1.67;;;;;;;21.55;64.55;102010.53;4915689;28;20048;-64
2022/07/22 10:03:42;;;;;;;8.55;1.67;;;;;;;22.20;68.04;102008.19;4915860;28;20415;-63
2022/07/22 10:06:09;;;;;;;5.22;1.67;;;;;;;23.16;61.48;102006.19;4915897;29;20107;-63
2022/07/22 10:08:36;;;;;;;7.07;2.50;;;;;;;22.21;64.11;102010.75;4931874;28;20116;-63
2022/07/22 10:11:05;;;;;;;7.03;2.63;;;;;;;22.47;65.39;102010.97;4915987;28;20040;-63
2022/07/22 10:13:32;;;;;;;3.85;1.85;;;;;;;21.76;65.92;102007.72;4915945;29;20143;-63
2022/07/22 10:16:02;;;;;;;5.05;1.70;;;;;;;21.53;64.10;102006.22;4912474;29;20092;-63
2022/07/22 10:18:29;;;;;;;4.22;1.85;;;;;;;22.47;62.85;102005.53;4912609;29;20083;-63
2022/07/22 10:21:04;;;;;;;2.42;1.70;;;;;;;22.40;60.58;101999.00;4912551;29;20040;-63
2022/07/22 10:23:30;;;;;;;6.20;2.08;;;;;;;22.03;62.87;101995.28;4896581;29;20128;-63
2022/07/22 10:25:58;;;;;;;4.82;1.90;;;;;;;22.45;65.23;101998.56;4935912;28;20028;-63
2022/07/22 10:28:27;;;;;;;4.65;2.00;;;;;;;22.99;65.86;101994.22;4923181;28;20075;-63
2022/07/22 10:31:13;;;;;;;5.40;1.95;;;;;;;22.36;70.07;101992.13;4947833;28;20054;-64
2022/07/22 10:33:39;;;;;;;3.85;2.10;;;;;;;22.17;62.36;101997.59;4971189;28;20039;-63
2022/07/22 10:36:04;;;;;;;3.58;2.13;;;;;;;22.64;60.19;101995.78;4970692;28;20095;-63
2022/07/22 10:38:32;;;;;;;4.30;2.10;;;;;;;22.96;59.77;101992.69;4980568;28;20038;-63
2022/07/22 10:41:02;;;;;;;7.60;2.00;;;;;;;23.99;57.35;101991.44;4950953;28;20028;-63
2022/07/22 10:43:31;;;;;;;5.22;1.80;;;;;;;24.02;56.55;101993.88;4973979;28;20034;-63
2022/07/22 10:45:59;;;;;;;3.03;2.05;;;;;;;23.49;60.17;102000.13;4970539;28;20054;-64
2022/07/22 10:48:44;;;;;;;5.07;2.20;;;;;;;23.65;58.91;101990.47;4969676;28;20035;-65
2022/07/22 10:51:14;;;;;;;8.98;2.33;;;;;;;23.77;62.83;101998.22;4985164;28;20047;-65
2022/07/22 10:53:42;;;;;;;4.57;1.80;;;;;;;24.61;54.97;101986.00;4970495;28;20070;-65
2022/07/22 10:56:18;;;;;;;4.20;1.65;;;;;;;24.07;59.87;101985.22;4968512;28;20051;-65
2022/07/22 10:58:52;;;;;;;5.55;2.08;;;;;;;24.29;59.82;101986.56;4969656;28;20198;-65
2022/07/22 11:01:21;;;;;;;4.03;1.90;;;;;;;23.33;59.56;102005.38;4968681;28;20043;-65
2022/07/22 11:03:48;;;;;;;7.70;2.40;;;;;;;24.36;56.04;101986.84;4968756;28;20039;-65
2022/07/22 11:06:29;;;;;;;12.90;2.50;;;;;;;24.34;53.14;101983.38;4968554;28;20031;-65
2022/07/22 11:09:00;;;;;;;2.83;1.98;;;;;;;23.12;57.61;101999.34;4967808;29;20026;-66
2022/07/22 11:11:33;;;;;;;6.97;2.45;;;;;;;23.49;60.09;101996.53;4968396;28;20082;-65
2022/07/22 11:13:59;;;;;;;4.45;2.10;;;;;;;23.98;58.97;101989.72;4970477;28;20098;-65
2022/07/22 11:16:26;;;;;;;5.00;2.03;;;;;;;23.93;55.58;101986.63;4968461;28;20164;-65
2022/07/22 11:19:00;;;;;;;3.85;1.95;;;;;;;24.39;55.62;101990.09;4968899;28;20059;-65
2022/07/22 11:21:27;;;;;;;4.97;2.00;;;;;;;24.43;52.57;101971.53;4970182;28;20043;-66
2022/07/22 11:23:55;;;;;;;5.45;2.47;;;;;;;24.50;54.23;101975.34;4969704;28;20148;-65